Aérodrome :
LOGIN :

S'inscrire | Disclaimer

   EN    FR    IT 

 










Légende :    VFR   VFR Marginal   IFR   IFR Intensif   IFR Très Intensif
Visi : 
Plafond : 
>= 8 km
>= 3000ft
5 à 8 km
1000 à 3000 ft
1500m à 5 km
500 à 1000 ft
800 à 1500m
200 à 500 ft
< 800m
< 200 ft
Symboles :   Orages  Brouillard  Fortes neiges  Fortes précipitations  Vent > 20 kt
SIGMETs :   Divers  Orages  Givrage  Turbulence  Onde Orograph.  Cendres Volcan.






- Altitude de l'aérodrome : 479 ft
- Code IATA : DOL


LFRG - Deauville

DERNIER METAR :
  • 280900Z AUTO 34012KT 300V020 9999 BKN021/// BKN029/// BKN034/// ///TCU 05/01 Q1005 TEMPO 34015G30KT BECMG BKN020

METARs EXPIRÉS :
  • 280830Z AUTO 34010KT 310V020 9999 BKN021 BKN031 05/01 Q1005 TEMPO 34015G30KT
  • 280800Z AUTO 34010KT 300V020 9999 BKN020 OVC028 04/01 Q1005 TEMPO 35015G35KT BKN020TCU
  • 280730Z AUTO 35011KT 310V020 9999 BKN020 OVC026 04/01 Q1005 TEMPO 35015G35KT BKN020TCU
  • 280700Z AUTO 34013KT 310V010 9999 BKN019 OVC025 05/01 Q1004 TEMPO 35015G35KT BKN020TCU
  • 280630Z AUTO 34012G23KT 310V020 9999 OVC017 04/02 Q1004 TEMPO 35015G35KT BKN020TCU

TAF TAF LFRG
Valide du 28 à 09h jusqu'au 28 à 18h UTC


280800Z 2809/2818 34012KT 9999 BKN020
TEMPO 2809/2816 34015G30KT
ATIS : +33 2 31 65 65 36



MET'MAP, la Météo Aéronautique d'un coup d'oeil ! - Copyright ORBIFLY Décembre 2007 - Disclaimer

ORBIFLY MET'MAP TEAM :

Programmation & Développement : Alexandra Zaïnal
Sur une idée originale de : Baudouin d'Aumeries
Assistance à la programmation : Marc-Olivier Méhu
Soutien technique & logistique : Manuel Goepfert

Contact : metmap@orbifly.com




SOURCES & CREDITS :

   NOAA